METAR Data
IDs: Format: Raw Decoded Include TAF

Data at: 0721 UTC 01 Aug 2021

Region: TOP
KATL 010709Z 36009KT 7SM -TSRA BKN030CB OVC048 25/22 A3001 RMK AO2 LTG DSNT NW-NE RAB0656 FRQ LTGICCG NE TS NE MOV SE P0001 T02500222

KBOS 010654Z 29006KT 10SM FEW250 19/10 A2993 RMK AO2 SLP134 T01890100

KBWI 010654Z 12003KT 10SM SCT035 BKN120 OVC180 22/17 A2990 RMK AO2 SLP123 T02220167

KCLE 010651Z 23005KT 10SM FEW200 18/15 A2986 RMK AO2 SLP123 T01780150

KCLT 010652Z 24003KT 7SM FEW250 24/22 A2990 RMK AO2 SLP114 T02440222

KCVG 010652Z 26005KT 6SM BR CLR 16/13 A2995 RMK AO2 SLP134 T01560133

KDCA 010713Z 18003KT 10SM BKN009 OVC080 22/20 A2990 RMK AO2 RAE03 P0000 T02220200

KDEN 010653Z 24006KT 5SM BR BKN090 OVC160 17/16 A3043 RMK AO2 SLP235 T01720161 402610172 $

KDFW 010653Z 18006KT 10SM CLR 29/22 A2998 RMK AO2 SLP140 T02890217 $

KDTW 010653Z 30004KT 10SM FEW110 SCT150 18/13 A2987 RMK AO2 SLP112 T01830128

KEWR 010651Z 24003KT 10SM FEW180 19/14 A2992 RMK AO2 SLP130 T01890139

KFLL 010653Z 00000KT 10SM CLR 28/24 A3004

KIAD 010652Z 17003KT 10SM FEW070 SCT095 OVC140 21/19 A2990 RMK AO2 RAB12E32 SLP122 P0000 T02110189

KIAH 010653Z 23004KT 10SM FEW250 28/24 A2999 RMK AO2 SLP155 T02830239

KJFK 010651Z 22006KT 10SM SCT170 19/16 A2993 RMK AO2 SLP134 T01890156

KLAS 010656Z 00000KT 10SM FEW120 SCT240 31/17 A3003 RMK AO2 SLP139 T03060172

KLAX 010653Z 18003KT 9SM FEW006 FEW250 17/16 A3002 RMK AO2 SLP163 T01720156

KLGA 010651Z 19006KT 10SM FEW150 22/14 A2991 RMK AO2 SLP128 T02170139

KMCO 010653Z 20004KT 10SM CLR 27/24 A3003 RMK AO2 SLP166 T02670239

KMDW 010653Z 27005KT 10SM FEW032 FEW050 FEW120 22/16 A2992 RMK AO2 SLP122 T02170161

KMEM 010654Z 30004KT 10SM BKN060 BKN250 28/24 A2994 RMK AO2 SLP134 T02830239

KMIA 010653Z 00000KT 10SM FEW035 28/24 A3005 RMK AO2 SLP176 T02780244 $

KMSP 010653Z 36007KT 5SM FU CLR 21/11 A3007 RMK AO2 SLP178 T02060111

KORD 010651Z 29004KT 10SM FEW050 21/17 A2992 RMK AO2 SLP126 T02110172

KPDX 010653Z 33005KT 10SM BKN250 22/14 A3003 RMK AO2 SLP166 T02170144

KPHL 010654Z 20005KT 10SM FEW250 20/15 A2992 RMK AO2 SLP130 T02000150 $

KPHX 010651Z 23003KT 10SM CLR 33/18 A2993 RMK AO2 SLP113 T03330178 403780250

KPIT 010651Z 00000KT 10SM FEW070 BKN130 17/13 A2990 RMK AO2 SLP126 T01670133

KSAN 010651Z VRB06KT 10SM FEW007 19/16 A3003 RMK AO2 SLP168 T01940161 $

KSEA 010653Z 22004KT 10SM OVC180 19/13 A3003 RMK AO2 SLP173 T01940133

KSFO 010656Z 31005KT 10SM FEW004 15/13 A3004 RMK AO2 SLP172 T01500128 $

KSLC 010654Z COR 09007KT 10SM BKN110 23/16 A3024 RMK AO2 RAB01E24 SLP178 P0000 T02330156 403560222

KSTL 010651Z 33005KT 9SM FEW013 SCT250 19/17 A3004 RMK AO2 SLP162 T01890167

KTPA 010653Z 25007KT 10SM CLR 29/24 A3003 RMK AO2 SLP169 T02940244